createdAt,value
2022-11-16T00:00:05.437Z,76.79
2022-11-16T00:00:18.702Z,76.99
2022-11-16T00:00:30.647Z,76.92
2022-11-16T00:00:42.647Z,77.06
2022-11-16T00:01:02.035Z,76.86
2022-11-16T00:01:20.215Z,76.78
2022-11-16T00:01:33.719Z,76.59
2022-11-16T00:01:46.443Z,76.48
2022-11-16T00:01:58.429Z,76.68
2022-11-16T00:02:11.394Z,76.66
2022-11-16T00:02:23.507Z,76.68
2022-11-16T00:02:35.603Z,76.56
2022-11-16T00:02:48.311Z,76.40
2022-11-16T00:03:04.294Z,76.31
2022-11-16T00:03:16.262Z,76.23
2022-11-16T00:03:28.470Z,76.39
2022-11-16T00:03:40.921Z,76.54
2022-11-16T00:03:55.403Z,76.56
2022-11-16T00:04:09.358Z,76.46
2022-11-16T00:04:21.274Z,76.56
2022-11-16T00:04:33.288Z,76.30
2022-11-16T00:04:45.197Z,76.46
2022-11-16T00:04:57.122Z,76.61
2022-11-16T00:05:09.232Z,76.65
2022-11-16T00:05:24.313Z,76.70
2022-11-16T00:05:40.006Z,76.69
2022-11-16T00:05:58.957Z,76.80
2022-11-16T00:06:11.908Z,76.79
2022-11-16T00:06:24.033Z,76.71
2022-11-16T00:06:35.948Z,76.74
2022-11-16T00:06:49.586Z,76.62
2022-11-16T00:07:04.847Z,76.71
2022-11-16T00:07:16.824Z,76.60
2022-11-16T00:07:28.833Z,76.58
2022-11-16T00:07:40.766Z,76.51
2022-11-16T00:07:52.652Z,76.63
2022-11-16T00:08:04.759Z,76.64
2022-11-16T00:08:16.613Z,76.46
2022-11-16T00:08:30.608Z,76.44
2022-11-16T00:09:07.032Z,76.45
2022-11-16T00:09:26.974Z,76.43
2022-11-16T00:09:39.149Z,76.23
2022-11-16T00:09:51.022Z,76.44
2022-11-16T00:10:02.940Z,76.29
2022-11-16T00:10:15.202Z,76.37
2022-11-16T00:10:27.077Z,76.40
2022-11-16T00:10:38.950Z,76.53
2022-11-16T00:10:50.932Z,76.43
2022-11-16T00:11:18.913Z,76.39
2022-11-16T00:11:30.771Z,76.43
2022-11-16T00:11:43.008Z,76.53
2022-11-16T00:11:57.206Z,76.58
2022-11-16T00:12:11.011Z,76.77
2022-11-16T00:12:22.895Z,76.56
2022-11-16T00:12:34.789Z,76.67
2022-11-16T00:12:46.696Z,76.80
2022-11-16T00:12:58.574Z,76.72
2022-11-16T00:13:10.443Z,76.83
2022-11-16T00:13:22.314Z,77.06
2022-11-16T00:13:35.785Z,77.11
2022-11-16T00:13:47.698Z,77.10
2022-11-16T00:13:59.735Z,77.23
2022-11-16T00:14:11.698Z,76.84
2022-11-16T00:14:25.987Z,76.76
2022-11-16T00:14:38.147Z,76.82
2022-11-16T00:14:51.015Z,76.89
2022-11-16T00:15:04.055Z,77.10
2022-11-16T00:15:15.955Z,77.03
2022-11-16T00:15:27.838Z,77.08
2022-11-16T00:15:39.718Z,76.95
2022-11-16T00:15:58.473Z,77.11
2022-11-16T00:16:17.587Z,77.05
2022-11-16T00:16:29.670Z,76.97
2022-11-16T00:16:42.398Z,76.41
2022-11-16T00:16:54.665Z,76.88
2022-11-16T00:17:06.635Z,76.77
2022-11-16T00:17:18.529Z,76.68
2022-11-16T00:17:30.442Z,76.82
2022-11-16T00:17:42.315Z,76.90
2022-11-16T00:17:54.187Z,76.68
2022-11-16T00:18:06.065Z,76.90
2022-11-16T00:18:17.970Z,76.82
2022-11-16T00:18:30.582Z,76.37
2022-11-16T00:18:42.901Z,76.68
2022-11-16T00:19:00.300Z,76.91
2022-11-16T00:19:13.091Z,76.98
2022-11-16T00:19:26.375Z,77.00
2022-11-16T00:19:38.339Z,76.94
2022-11-16T00:19:50.208Z,76.75
2022-11-16T00:20:02.136Z,77.03
2022-11-16T00:20:14.065Z,77.09
2022-11-16T00:20:25.933Z,77.04
2022-11-16T00:20:39.131Z,76.95
2022-11-16T00:20:51.543Z,77.09
2022-11-16T00:21:05.279Z,77.37
2022-11-16T00:21:17.141Z,77.47
2022-11-16T00:21:30.067Z,77.73
2022-11-16T00:21:42.121Z,77.76
2022-11-16T00:21:54.602Z,77.70
2022-11-16T00:22:06.550Z,77.55
2022-11-16T00:22:18.427Z,77.54
2022-11-16T00:22:30.304Z,77.61
2022-11-16T00:22:42.184Z,77.66
2022-11-16T00:22:54.079Z,77.42
2022-11-16T00:23:05.995Z,77.59
2022-11-16T00:23:18.296Z,77.71
2022-11-16T00:23:30.177Z,77.71
2022-11-16T00:23:42.045Z,77.57
2022-11-16T00:23:54.569Z,77.67
2022-11-16T00:24:06.787Z,77.76
2022-11-16T00:24:20.518Z,77.80
2022-11-16T00:24:32.426Z,77.78
2022-11-16T00:24:44.302Z,77.93
2022-11-16T00:24:56.159Z,77.80
2022-11-16T00:25:08.304Z,77.80
2022-11-16T00:25:20.166Z,77.82
2022-11-16T00:25:34.606Z,77.72
2022-11-16T00:25:46.712Z,77.86
2022-11-16T00:26:09.750Z,77.78
2022-11-16T00:26:21.775Z,77.93
2022-11-16T00:26:33.699Z,77.78
2022-11-16T00:26:46.409Z,78.04
2022-11-16T00:26:58.377Z,78.01
2022-11-16T00:27:10.230Z,77.96
2022-11-16T00:27:22.136Z,77.98
2022-11-16T00:27:33.999Z,77.85
2022-11-16T00:27:45.899Z,77.86
2022-11-16T00:27:57.796Z,77.84
2022-11-16T00:28:10.141Z,77.77
2022-11-16T00:28:22.061Z,77.57
2022-11-16T00:28:34.502Z,77.64
2022-11-16T00:28:46.855Z,77.73
2022-11-16T00:28:58.845Z,77.49
2022-11-16T00:29:24.463Z,77.75
2022-11-16T00:29:36.330Z,78.14
2022-11-16T00:29:48.209Z,77.89
2022-11-16T00:30:00.125Z,78.06
2022-11-16T00:30:12.401Z,78.21
2022-11-16T00:30:24.283Z,77.98
2022-11-16T00:30:36.427Z,78.04
2022-11-16T00:30:57.918Z,77.79
2022-11-16T00:31:10.670Z,77.99
2022-11-16T00:31:23.678Z,77.95
2022-11-16T00:31:35.557Z,78.23
2022-11-16T00:31:48.158Z,78.21
2022-11-16T00:32:00.060Z,78.16
2022-11-16T00:32:12.337Z,77.95
2022-11-16T00:32:24.239Z,77.85
2022-11-16T00:32:36.133Z,77.94
2022-11-16T00:32:48.025Z,77.88
2022-11-16T00:33:00.978Z,77.77
2022-11-16T00:33:16.295Z,77.84
2022-11-16T00:33:28.482Z,77.61
2022-11-16T00:33:40.444Z,77.72
2022-11-16T00:33:52.610Z,77.69
2022-11-16T00:34:04.488Z,77.68
2022-11-16T00:34:17.551Z,77.62
2022-11-16T00:34:29.476Z,77.69
2022-11-16T00:34:41.391Z,77.40
2022-11-16T00:34:53.275Z,77.56
2022-11-16T00:35:05.558Z,77.68
2022-11-16T00:35:17.442Z,77.62
2022-11-16T00:35:29.398Z,77.74
2022-11-16T00:35:41.624Z,77.78
2022-11-16T00:35:53.642Z,77.94
2022-11-16T00:36:08.108Z,77.97
2022-11-16T00:36:20.105Z,78.12
2022-11-16T00:36:31.988Z,78.14
2022-11-16T00:36:44.581Z,78.10
2022-11-16T00:36:56.514Z,78.09
2022-11-16T00:37:08.444Z,78.07
2022-11-16T00:37:20.352Z,78.13
2022-11-16T00:37:32.245Z,77.97
2022-11-16T00:37:44.115Z,77.60
2022-11-16T00:37:56.026Z,77.73
2022-11-16T00:38:08.048Z,77.72
2022-11-16T00:38:20.100Z,77.82
2022-11-16T00:38:32.845Z,77.44
2022-11-16T00:38:44.970Z,77.96
2022-11-16T00:38:56.963Z,77.69
2022-11-16T00:39:14.072Z,77.70
2022-11-16T00:39:25.945Z,77.94
2022-11-16T00:39:37.852Z,77.66
2022-11-16T00:39:49.821Z,77.46
2022-11-16T00:40:01.713Z,77.83
2022-11-16T00:40:13.621Z,77.79
2022-11-16T00:40:25.557Z,77.82
2022-11-16T00:40:37.467Z,77.83
2022-11-16T00:40:49.897Z,77.93
2022-11-16T00:41:01.937Z,78.11
2022-11-16T00:41:14.100Z,78.02
2022-11-16T00:41:25.986Z,77.88
2022-11-16T00:41:37.855Z,78.29
2022-11-16T00:41:50.022Z,78.31
2022-11-16T00:42:01.946Z,78.38
2022-11-16T00:42:13.818Z,78.37
2022-11-16T00:42:25.742Z,78.38
2022-11-16T00:42:37.626Z,78.37
2022-11-16T00:42:49.650Z,78.37
2022-11-16T00:43:01.571Z,78.38
2022-11-16T00:43:13.477Z,78.23
2022-11-16T00:43:25.937Z,78.36
2022-11-16T00:43:37.871Z,78.15
2022-11-16T00:43:49.791Z,78.13
2022-11-16T00:44:01.670Z,78.08
2022-11-16T00:44:14.252Z,78.06
2022-11-16T00:44:26.147Z,77.84
2022-11-16T00:44:38.034Z,77.79
2022-11-16T00:44:49.904Z,77.88
2022-11-16T00:45:01.786Z,77.72
2022-11-16T00:45:13.690Z,77.84
2022-11-16T00:45:25.602Z,77.85
2022-11-16T00:45:39.623Z,77.53
2022-11-16T00:45:51.554Z,77.49
2022-11-16T00:46:04.077Z,77.53
2022-11-16T00:46:16.123Z,77.51
2022-11-16T00:46:28.075Z,77.31
2022-11-16T00:46:40.375Z,77.51
2022-11-16T00:46:52.244Z,77.28
2022-11-16T00:47:04.319Z,77.24
2022-11-16T00:47:16.264Z,77.36
2022-11-16T00:47:28.178Z,77.44
2022-11-16T00:47:40.154Z,77.45
2022-11-16T00:47:55.234Z,77.27
2022-11-16T00:48:10.787Z,77.33
2022-11-16T00:48:22.746Z,77.24
2022-11-16T00:48:34.887Z,77.30
2022-11-16T00:48:47.052Z,77.22
2022-11-16T00:48:58.976Z,77.10
2022-11-16T00:49:11.009Z,77.31
2022-11-16T00:49:22.903Z,77.27
2022-11-16T00:49:34.795Z,77.17
2022-11-16T00:49:46.684Z,77.14
2022-11-16T00:49:58.550Z,77.15
2022-11-16T00:50:10.586Z,77.18
2022-11-16T00:50:22.475Z,77.03
2022-11-16T00:50:34.356Z,77.02
2022-11-16T00:50:46.753Z,77.09
2022-11-16T00:50:58.649Z,77.13
2022-11-16T00:51:10.638Z,76.96
2022-11-16T00:51:22.502Z,76.75
2022-11-16T00:51:35.697Z,76.97
2022-11-16T00:51:47.567Z,76.96
2022-11-16T00:51:59.454Z,76.89
2022-11-16T00:52:11.346Z,77.03
2022-11-16T00:52:23.242Z,76.90
2022-11-16T00:52:35.117Z,76.68
2022-11-16T00:52:46.989Z,76.76
2022-11-16T00:52:58.880Z,76.85
2022-11-16T00:53:13.335Z,76.97
2022-11-16T00:53:25.228Z,77.23
2022-11-16T00:53:37.219Z,77.16
2022-11-16T00:53:49.131Z,77.19
2022-11-16T00:54:01.562Z,77.31
2022-11-16T00:54:13.503Z,77.67
2022-11-16T00:54:25.505Z,77.39
2022-11-16T00:54:37.405Z,77.49
2022-11-16T00:54:49.272Z,77.37
2022-11-16T00:55:01.162Z,77.36
2022-11-16T00:55:13.047Z,77.37
2022-11-16T00:55:24.909Z,77.42
2022-11-16T00:55:37.539Z,77.49
2022-11-16T00:55:49.444Z,77.29
2022-11-16T00:56:01.367Z,77.20
2022-11-16T00:56:13.355Z,77.30
2022-11-16T00:56:25.351Z,77.18
2022-11-16T00:56:37.728Z,77.18
2022-11-16T00:56:49.614Z,77.28
2022-11-16T00:57:01.542Z,77.30
2022-11-16T00:57:13.398Z,77.36
2022-11-16T00:57:25.262Z,77.28
2022-11-16T00:57:37.335Z,77.31
2022-11-16T00:57:49.208Z,77.28
2022-11-16T00:58:01.108Z,77.29
2022-11-16T00:58:13.772Z,77.43
2022-11-16T00:58:25.644Z,77.32
2022-11-16T00:58:37.544Z,77.37
2022-11-16T00:58:49.553Z,77.37
2022-11-16T00:59:01.517Z,77.30
2022-11-16T00:59:13.436Z,77.29
2022-11-16T00:59:25.341Z,77.15
2022-11-16T00:59:37.225Z,77.17
2022-11-16T00:59:49.365Z,77.23
2022-11-16T01:00:01.243Z,77.06
2022-11-16T01:00:13.619Z,76.95
2022-11-16T01:00:26.019Z,77.09
2022-11-16T01:00:38.380Z,77.10
2022-11-16T01:00:50.309Z,77.10
2022-11-16T01:01:07.074Z,77.06
2022-11-16T01:01:19.085Z,77.13
2022-11-16T01:01:31.112Z,77.24
2022-11-16T01:01:43.146Z,77.18
2022-11-16T01:01:55.108Z,77.07
2022-11-16T01:02:07.058Z,77.12
2022-11-16T01:02:18.947Z,76.70
2022-11-16T01:02:30.887Z,76.79
2022-11-16T01:02:42.740Z,76.98
2022-11-16T01:02:54.729Z,77.18
2022-11-16T01:03:06.684Z,77.09
2022-11-16T01:03:18.607Z,77.27
2022-11-16T01:03:30.511Z,77.44
2022-11-16T01:03:42.428Z,77.54
2022-11-16T01:03:54.330Z,77.55
2022-11-16T01:04:06.225Z,77.67
2022-11-16T01:04:18.121Z,77.53
2022-11-16T01:04:29.998Z,77.60
2022-11-16T01:04:41.886Z,77.53
2022-11-16T01:04:53.765Z,77.59
2022-11-16T01:05:06.426Z,77.42
2022-11-16T01:05:18.581Z,77.25
2022-11-16T01:05:31.149Z,77.32
2022-11-16T01:05:43.061Z,77.35
2022-11-16T01:06:00.963Z,77.28
2022-11-16T01:06:14.420Z,77.38
2022-11-16T01:06:26.299Z,77.49
2022-11-16T01:06:38.153Z,77.52
2022-11-16T01:06:50.189Z,77.63
2022-11-16T01:07:02.143Z,77.53
2022-11-16T01:07:14.167Z,77.41
2022-11-16T01:07:26.215Z,77.51
2022-11-16T01:07:40.148Z,77.61
2022-11-16T01:07:52.343Z,77.56
2022-11-16T01:08:04.890Z,77.34
2022-11-16T01:08:16.764Z,77.21
2022-11-16T01:08:28.709Z,77.29
2022-11-16T01:08:41.638Z,77.21
2022-11-16T01:08:53.546Z,77.30
2022-11-16T01:09:05.515Z,77.02
2022-11-16T01:09:17.415Z,76.81
2022-11-16T01:09:29.359Z,77.18
2022-11-16T01:09:41.215Z,77.22
2022-11-16T01:09:53.185Z,77.31
2022-11-16T01:10:10.802Z,77.59
2022-11-16T01:10:24.538Z,77.76
2022-11-16T01:10:39.058Z,78.29
2022-11-16T01:10:50.921Z,78.54
2022-11-16T01:11:22.320Z,78.55
2022-11-16T01:11:52.689Z,78.73
2022-11-16T01:12:10.847Z,78.45
2022-11-16T01:12:22.821Z,78.44
2022-11-16T01:12:35.087Z,78.50
2022-11-16T01:12:48.619Z,78.43
2022-11-16T01:13:00.531Z,78.14
2022-11-16T01:13:12.401Z,78.14
2022-11-16T01:13:24.280Z,78.13
2022-11-16T01:13:36.147Z,78.04
2022-11-16T01:13:49.036Z,77.88
2022-11-16T01:14:07.215Z,78.11
2022-11-16T01:14:19.291Z,78.50
2022-11-16T01:14:31.214Z,78.32
2022-11-16T01:14:45.980Z,78.27
2022-11-16T01:14:57.894Z,78.28
2022-11-16T01:15:10.297Z,78.52
2022-11-16T01:15:24.361Z,78.40
2022-11-16T01:15:36.235Z,78.38
2022-11-16T01:15:48.731Z,78.30
2022-11-16T01:16:00.605Z,78.18
2022-11-16T01:16:17.568Z,78.21
2022-11-16T01:16:29.782Z,78.23
2022-11-16T01:16:41.669Z,78.38
2022-11-16T01:16:53.546Z,78.34
2022-11-16T01:17:05.494Z,78.24
2022-11-16T01:17:17.362Z,78.29
2022-11-16T01:17:29.251Z,78.36
2022-11-16T01:17:41.749Z,78.29
2022-11-16T01:17:55.688Z,78.53
2022-11-16T01:18:07.618Z,78.75
2022-11-16T01:18:19.526Z,78.84
2022-11-16T01:18:32.583Z,79.12
2022-11-16T01:18:49.845Z,78.97
2022-11-16T01:19:02.087Z,79.04
2022-11-16T01:19:13.949Z,79.00
2022-11-16T01:19:25.884Z,79.29
2022-11-16T01:19:38.514Z,79.33
2022-11-16T01:19:50.426Z,79.73
2022-11-16T01:20:05.775Z,79.78
2022-11-16T01:20:21.320Z,79.45
2022-11-16T01:20:33.186Z,79.64
2022-11-16T01:20:45.067Z,79.68
2022-11-16T01:20:56.954Z,79.82
2022-11-16T01:21:08.885Z,79.68
2022-11-16T01:21:22.458Z,79.49
2022-11-16T01:21:34.487Z,79.74
2022-11-16T01:21:46.336Z,79.56
2022-11-16T01:21:58.804Z,79.32
2022-11-16T01:22:10.680Z,79.39
2022-11-16T01:22:22.752Z,79.41
2022-11-16T01:22:39.155Z,79.38
2022-11-16T01:22:51.450Z,79.22
2022-11-16T01:23:03.565Z,79.18
2022-11-16T01:23:15.420Z,79.13
2022-11-16T01:23:27.292Z,79.11
2022-11-16T01:23:39.242Z,78.96
2022-11-16T01:23:51.847Z,78.84
2022-11-16T01:24:03.910Z,78.86
2022-11-16T01:24:15.837Z,78.74
2022-11-16T01:24:27.802Z,78.82
2022-11-16T01:24:39.805Z,78.85
2022-11-16T01:24:51.697Z,78.64
2022-11-16T01:25:04.320Z,78.77
2022-11-16T01:25:16.559Z,78.67
2022-11-16T01:25:28.409Z,78.96
2022-11-16T01:25:40.289Z,78.96
2022-11-16T01:25:59.342Z,78.90
2022-11-16T01:26:11.242Z,78.83
2022-11-16T01:26:24.223Z,79.31
2022-11-16T01:26:36.229Z,79.38
2022-11-16T01:26:48.184Z,79.62
2022-11-16T01:27:00.104Z,79.62
2022-11-16T01:27:12.164Z,79.78
2022-11-16T01:27:24.125Z,79.84
2022-11-16T01:27:36.626Z,79.93
2022-11-16T01:27:48.573Z,79.97
2022-11-16T01:28:00.447Z,79.93
2022-11-16T01:28:12.321Z,79.65
2022-11-16T01:28:24.202Z,79.83
2022-11-16T01:28:36.521Z,79.84
2022-11-16T01:28:48.655Z,79.53
2022-11-16T01:29:00.613Z,79.80
2022-11-16T01:29:12.498Z,79.49
2022-11-16T01:29:26.137Z,79.68
2022-11-16T01:29:38.198Z,79.58
2022-11-16T01:29:50.077Z,79.20
2022-11-16T01:30:02.058Z,79.12
2022-11-16T01:30:15.215Z,78.95
2022-11-16T01:30:27.124Z,79.17
2022-11-16T01:30:39.001Z,79.22
2022-11-16T01:30:50.890Z,79.12
2022-11-16T01:31:03.046Z,79.06
2022-11-16T01:31:15.042Z,78.87
2022-11-16T01:31:26.991Z,78.87
2022-11-16T01:31:38.956Z,78.90
2022-11-16T01:31:50.870Z,78.84
2022-11-16T01:32:02.837Z,78.96
2022-11-16T01:32:15.359Z,78.64
2022-11-16T01:32:27.266Z,78.88
2022-11-16T01:32:39.477Z,79.08
2022-11-16T01:32:51.385Z,78.86
2022-11-16T01:33:03.333Z,78.73
2022-11-16T01:33:15.246Z,78.99
2022-11-16T01:33:27.300Z,79.11
2022-11-16T01:33:39.422Z,79.08
2022-11-16T01:33:51.299Z,79.17
2022-11-16T01:34:03.216Z,79.21
2022-11-16T01:34:15.659Z,79.11
2022-11-16T01:34:27.564Z,79.06
2022-11-16T01:34:39.448Z,79.08
2022-11-16T01:34:51.394Z,79.08
2022-11-16T01:35:04.690Z,79.02
2022-11-16T01:35:18.651Z,79.27
2022-11-16T01:35:30.549Z,79.36
2022-11-16T01:35:45.231Z,79.51
2022-11-16T01:35:57.156Z,79.31
2022-11-16T01:36:14.534Z,79.37
2022-11-16T01:36:26.798Z,79.33
2022-11-16T01:36:38.699Z,79.26
2022-11-16T01:36:50.578Z,79.48
2022-11-16T01:37:02.475Z,79.62
2022-11-16T01:37:14.349Z,79.78
2022-11-16T01:37:26.829Z,79.88
2022-11-16T01:37:38.716Z,79.70
2022-11-16T01:37:50.645Z,79.67
2022-11-16T01:38:04.875Z,79.61
2022-11-16T01:38:17.392Z,79.65
2022-11-16T01:38:30.099Z,79.63
2022-11-16T01:38:44.150Z,79.47
2022-11-16T01:38:56.648Z,79.50
2022-11-16T01:39:09.793Z,79.42
2022-11-16T01:39:21.774Z,79.30
2022-11-16T01:39:33.758Z,79.19
2022-11-16T01:39:45.666Z,79.29
2022-11-16T01:39:57.837Z,79.11
2022-11-16T01:40:11.294Z,79.16
2022-11-16T01:40:23.196Z,79.17
2022-11-16T01:40:35.078Z,79.07
2022-11-16T01:40:47.021Z,79.06
2022-11-16T01:40:58.945Z,78.89
2022-11-16T01:41:20.620Z,78.78
2022-11-16T01:41:32.981Z,78.87
2022-11-16T01:41:45.512Z,78.79
2022-11-16T01:41:57.419Z,78.77
2022-11-16T01:42:20.430Z,78.65
2022-11-16T01:42:33.481Z,78.80
2022-11-16T01:42:45.425Z,78.64
2022-11-16T01:42:57.344Z,78.83
2022-11-16T01:43:22.113Z,78.87
2022-11-16T01:44:02.051Z,78.83
2022-11-16T01:44:32.144Z,79.20
2022-11-16T01:44:44.037Z,79.24
2022-11-16T01:45:22.617Z,79.38
2022-11-16T01:45:39.123Z,80.03
2022-11-16T01:45:51.773Z,80.12
2022-11-16T01:46:03.643Z,80.62
2022-11-16T01:46:15.545Z,80.80
2022-11-16T01:46:28.934Z,81.13
2022-11-16T01:46:42.073Z,80.83
2022-11-16T01:46:54.037Z,81.23
2022-11-16T01:47:09.886Z,81.16
2022-11-16T01:47:21.839Z,81.51
2022-11-16T01:47:34.062Z,81.62
2022-11-16T01:47:46.580Z,81.35
2022-11-16T01:47:58.589Z,81.32
2022-11-16T01:48:13.571Z,81.53
2022-11-16T01:48:28.806Z,81.16
2022-11-16T01:48:41.527Z,80.97
2022-11-16T01:49:00.319Z,80.85
2022-11-16T01:49:16.378Z,80.63
2022-11-16T01:49:34.906Z,80.63
2022-11-16T01:49:54.070Z,80.64
2022-11-16T01:50:10.208Z,80.39
2022-11-16T01:50:22.889Z,80.35
2022-11-16T01:50:35.575Z,80.31
2022-11-16T01:50:49.067Z,80.28
2022-11-16T01:51:00.975Z,80.29
2022-11-16T01:51:12.946Z,80.04
2022-11-16T01:51:25.080Z,80.14
2022-11-16T01:51:37.901Z,80.18
2022-11-16T01:51:55.650Z,80.26
2022-11-16T01:52:11.519Z,80.03
2022-11-16T01:52:28.828Z,80.11
2022-11-16T01:52:48.104Z,80.20
2022-11-16T01:53:03.804Z,80.34
2022-11-16T01:53:16.161Z,80.11
2022-11-16T01:53:28.192Z,80.04
2022-11-16T01:53:40.565Z,79.95
2022-11-16T01:54:07.652Z,80.00
2022-11-16T01:54:32.247Z,80.13
2022-11-16T01:55:00.342Z,79.87
2022-11-16T01:55:18.242Z,79.99
2022-11-16T01:55:41.824Z,79.99
2022-11-16T01:55:53.800Z,79.87
2022-11-16T01:56:05.979Z,79.82
2022-11-16T01:56:18.084Z,79.82
2022-11-16T01:56:32.268Z,79.69
2022-11-16T01:56:46.615Z,79.80
2022-11-16T01:57:02.665Z,79.79
2022-11-16T01:57:20.416Z,79.57
2022-11-16T01:57:40.661Z,79.64
2022-11-16T01:57:52.615Z,79.62
2022-11-16T01:58:05.991Z,79.54
2022-11-16T01:58:22.975Z,79.50
2022-11-16T01:58:35.368Z,79.30
2022-11-16T01:58:47.598Z,79.34
2022-11-16T01:58:59.790Z,79.33
2022-11-16T01:59:13.318Z,79.40
2022-11-16T01:59:25.480Z,79.11
2022-11-16T01:59:38.520Z,79.34
2022-11-16T01:59:55.643Z,79.32
2022-11-16T02:00:09.903Z,79.25
2022-11-16T02:00:22.464Z,79.41
2022-11-16T02:00:34.374Z,79.29
2022-11-16T02:00:46.435Z,79.18
2022-11-16T02:00:58.469Z,79.29
2022-11-16T02:01:10.492Z,79.35
2022-11-16T02:01:23.203Z,79.15
2022-11-16T02:01:35.156Z,79.11
2022-11-16T02:01:47.066Z,79.30
2022-11-16T02:02:00.610Z,79.39
2022-11-16T02:02:12.500Z,79.33
2022-11-16T02:02:24.586Z,79.42
2022-11-16T02:02:36.563Z,79.29
2022-11-16T02:02:48.578Z,79.27
2022-11-16T02:03:00.529Z,79.06
2022-11-16T02:03:12.409Z,79.00
2022-11-16T02:03:26.105Z,78.85
2022-11-16T02:03:38.531Z,78.75
2022-11-16T02:03:50.403Z,78.73
2022-11-16T02:04:02.367Z,78.61
2022-11-16T02:04:14.721Z,78.54
2022-11-16T02:04:26.792Z,78.30
2022-11-16T02:04:38.874Z,78.54
2022-11-16T02:04:53.659Z,78.62
2022-11-16T02:05:06.707Z,78.53
2022-11-16T02:05:22.333Z,78.64
2022-11-16T02:05:47.837Z,78.73
2022-11-16T02:06:22.882Z,78.89
2022-11-16T02:06:53.337Z,79.13
2022-11-16T02:07:28.511Z,79.12
2022-11-16T02:08:13.077Z,79.13
2022-11-16T02:09:14.204Z,79.36
2022-11-16T02:09:53.703Z,79.18
2022-11-16T02:10:28.558Z,79.22
2022-11-16T02:10:59.009Z,79.03
2022-11-16T02:11:53.862Z,78.86
2022-11-16T02:12:28.263Z,78.54
2022-11-16T02:12:51.973Z,78.86
2022-11-16T02:13:29.073Z,79.06
2022-11-16T02:14:02.413Z,78.49
2022-11-16T02:14:42.140Z,78.47
2022-11-16T02:15:08.992Z,78.31
2022-11-16T02:15:48.555Z,78.31
2022-11-16T02:16:34.015Z,78.12
2022-11-16T02:16:58.034Z,78.13
2022-11-16T02:17:38.914Z,78.47
2022-11-16T02:18:08.854Z,78.21
2022-11-16T02:18:42.300Z,78.22
2022-11-16T02:19:16.195Z,78.14
2022-11-16T02:19:44.492Z,78.28
2022-11-16T02:20:09.654Z,78.28
2022-11-16T02:20:43.643Z,78.34
2022-11-16T02:21:20.374Z,78.50
2022-11-16T02:21:42.647Z,78.50
2022-11-16T02:22:18.137Z,78.33
2022-11-16T02:23:17.967Z,78.22
2022-11-16T02:24:04.957Z,78.20
2022-11-16T02:24:56.262Z,78.18
2022-11-16T02:25:30.526Z,78.03
2022-11-16T02:26:01.113Z,78.09
2022-11-16T02:26:20.217Z,78.13
2022-11-16T02:26:32.048Z,78.21
2022-11-16T02:27:07.915Z,78.38
2022-11-16T02:27:55.213Z,78.31
2022-11-16T02:28:09.845Z,78.49
2022-11-16T02:28:46.662Z,78.36
2022-11-16T02:29:32.486Z,78.18
2022-11-16T02:29:53.181Z,78.22
2022-11-16T02:30:05.964Z,78.32
2022-11-16T02:30:19.460Z,78.30
2022-11-16T02:30:31.377Z,78.34
2022-11-16T02:30:47.508Z,78.34
2022-11-16T02:31:03.787Z,78.37
2022-11-16T02:31:28.079Z,78.29
2022-11-16T02:32:06.735Z,78.39
2022-11-16T02:32:43.875Z,78.21
2022-11-16T02:33:02.606Z,78.24
2022-11-16T02:33:18.596Z,78.32
2022-11-16T02:33:36.142Z,78.32
2022-11-16T02:33:50.312Z,78.13
2022-11-16T02:34:05.293Z,78.05
2022-11-16T02:34:19.344Z,78.19
2022-11-16T02:34:38.544Z,78.35
2022-11-16T02:34:51.820Z,78.41
2022-11-16T02:35:15.289Z,78.23
2022-11-16T02:35:34.346Z,78.32
2022-11-16T02:35:52.130Z,78.12
2022-11-16T02:36:07.594Z,78.24
2022-11-16T02:36:23.970Z,78.17
2022-11-16T02:36:39.712Z,78.14
2022-11-16T02:36:54.679Z,78.02
2022-11-16T02:37:10.503Z,78.38
2022-11-16T02:37:24.552Z,78.20
2022-11-16T02:37:42.715Z,78.17
2022-11-16T02:37:59.867Z,78.13
2022-11-16T02:38:17.335Z,78.08
2022-11-16T02:38:37.919Z,78.09
2022-11-16T02:39:06.675Z,77.99
2022-11-16T02:39:21.612Z,78.10
2022-11-16T02:39:37.169Z,78.11
2022-11-16T02:39:55.305Z,78.30
2022-11-16T02:40:11.153Z,78.09
2022-11-16T02:40:26.385Z,78.18
2022-11-16T02:40:42.818Z,78.20
2022-11-16T02:41:03.018Z,78.21
2022-11-16T02:41:20.929Z,78.32
2022-11-16T02:41:37.579Z,78.24
2022-11-16T02:41:51.024Z,78.27
2022-11-16T02:42:08.276Z,78.41
2022-11-16T02:42:29.166Z,78.36
2022-11-16T02:42:49.916Z,78.21
2022-11-16T02:43:11.412Z,78.29
2022-11-16T02:43:30.773Z,78.22
2022-11-16T02:43:48.281Z,78.33
2022-11-16T02:44:06.069Z,78.45
2022-11-16T02:44:22.499Z,78.52
2022-11-16T02:44:40.165Z,78.46
2022-11-16T02:44:54.695Z,78.44
2022-11-16T02:45:10.059Z,78.51
2022-11-16T02:45:25.657Z,78.55
2022-11-16T02:45:42.846Z,78.41
2022-11-16T02:45:58.644Z,78.44
2022-11-16T02:46:21.429Z,78.49
2022-11-16T02:46:38.375Z,78.45
2022-11-16T02:46:55.949Z,78.23
2022-11-16T02:47:14.828Z,78.54
2022-11-16T02:47:31.758Z,78.49
2022-11-16T02:47:46.450Z,78.49
2022-11-16T02:48:05.651Z,78.42
2022-11-16T02:48:26.771Z,78.50
2022-11-16T02:48:44.220Z,78.50
2022-11-16T02:49:00.943Z,78.48
2022-11-16T02:49:17.589Z,78.39
2022-11-16T02:49:33.398Z,78.58
2022-11-16T02:49:50.140Z,78.68
2022-11-16T02:50:06.628Z,78.56
2022-11-16T02:50:21.456Z,78.27
2022-11-16T02:50:35.247Z,78.54
2022-11-16T02:50:52.593Z,78.58
2022-11-16T02:51:06.414Z,78.74
2022-11-16T02:51:20.537Z,78.77
2022-11-16T02:51:34.838Z,78.89
2022-11-16T02:51:48.136Z,79.06
2022-11-16T02:52:00.814Z,79.04
2022-11-16T02:52:14.006Z,79.07
2022-11-16T02:52:28.351Z,79.02
2022-11-16T02:52:40.273Z,78.98
2022-11-16T02:52:52.190Z,79.01
2022-11-16T02:53:04.169Z,79.00
2022-11-16T02:53:16.083Z,78.99
2022-11-16T02:53:28.059Z,79.08
2022-11-16T02:54:04.360Z,79.09
2022-11-16T02:54:17.782Z,78.97
2022-11-16T02:54:29.700Z,79.08
2022-11-16T02:54:41.583Z,78.94
2022-11-16T02:54:53.472Z,78.97
2022-11-16T02:55:05.636Z,78.92
2022-11-16T02:55:17.597Z,78.99
2022-11-16T02:55:32.564Z,78.70
2022-11-16T02:55:44.462Z,78.89
2022-11-16T02:55:56.369Z,78.70
2022-11-16T02:56:13.486Z,78.85
2022-11-16T02:56:25.567Z,78.75
2022-11-16T02:57:04.178Z,78.84
2022-11-16T02:57:25.280Z,78.80
2022-11-16T02:58:09.620Z,78.66
2022-11-16T02:58:24.918Z,78.62
2022-11-16T02:58:36.912Z,79.11
2022-11-16T02:58:48.998Z,78.95
2022-11-16T02:59:00.949Z,79.15
2022-11-16T02:59:17.539Z,79.01
2022-11-16T02:59:46.270Z,78.91
2022-11-16T02:59:59.124Z,78.85
2022-11-16T03:00:18.133Z,78.78
2022-11-16T03:00:37.769Z,79.01
2022-11-16T03:00:52.524Z,78.89
2022-11-16T03:01:30.883Z,78.95
2022-11-16T03:01:50.916Z,78.94
2022-11-16T03:02:20.312Z,79.17
2022-11-16T03:02:48.608Z,78.90
2022-11-16T03:03:21.714Z,78.91
2022-11-16T03:04:00.592Z,79.30
2022-11-16T03:04:18.827Z,79.33
2022-11-16T03:04:37.725Z,79.39
2022-11-16T03:04:59.619Z,78.87
2022-11-16T03:05:37.813Z,79.03
2022-11-16T03:05:53.935Z,79.09
2022-11-16T03:06:12.976Z,79.36
2022-11-16T03:06:29.926Z,79.19
2022-11-16T03:06:43.697Z,79.08
2022-11-16T03:06:58.207Z,79.12
2022-11-16T03:07:14.023Z,79.15
2022-11-16T03:07:31.996Z,78.91
2022-11-16T03:07:56.189Z,79.17
2022-11-16T03:08:51.066Z,78.83
2022-11-16T03:09:10.974Z,79.03
2022-11-16T03:09:30.805Z,78.89
2022-11-16T03:09:45.692Z,78.82
2022-11-16T03:09:58.068Z,78.68
2022-11-16T03:10:11.006Z,78.71
2022-11-16T03:10:41.489Z,78.62
2022-11-16T03:11:22.160Z,78.69
2022-11-16T03:11:57.086Z,78.87
2022-11-16T03:12:14.995Z,79.30
2022-11-16T03:12:31.489Z,79.58
2022-11-16T03:12:43.670Z,79.31
2022-11-16T03:12:56.113Z,79.34
2022-11-16T03:13:12.264Z,79.21
2022-11-16T03:13:27.973Z,79.58
2022-11-16T03:13:40.763Z,79.34
2022-11-16T03:13:58.662Z,79.40
2022-11-16T03:14:16.828Z,79.39
2022-11-16T03:14:53.982Z,79.52
2022-11-16T03:15:11.503Z,79.43
2022-11-16T03:15:24.433Z,79.56
2022-11-16T03:15:39.032Z,79.34
2022-11-16T03:15:52.948Z,79.38
2022-11-16T03:16:11.225Z,79.37
2022-11-16T03:16:28.331Z,79.37
2022-11-16T03:16:53.671Z,79.40
2022-11-16T03:17:10.957Z,79.51
2022-11-16T03:17:29.825Z,79.32
2022-11-16T03:17:45.971Z,78.93
2022-11-16T03:18:00.104Z,79.10
2022-11-16T03:18:15.959Z,79.48